sensor_id;sensor_type;location;lat;lon;timestamp;temperature;humidity
59973;DHT22;55298;-36.624;-64.282;2023-12-29T00:02:26;29.70;28.10
59973;DHT22;55298;-36.624;-64.282;2023-12-29T00:04:54;29.60;28.10
59973;DHT22;55298;-36.624;-64.282;2023-12-29T00:07:22;29.60;28.40
59973;DHT22;55298;-36.624;-64.282;2023-12-29T00:09:49;29.60;28.60
59973;DHT22;55298;-36.624;-64.282;2023-12-29T00:12:17;29.60;28.40
59973;DHT22;55298;-36.624;-64.282;2023-12-29T00:14:44;29.60;28.30
59973;DHT22;55298;-36.624;-64.282;2023-12-29T00:17:12;29.60;28.70
59973;DHT22;55298;-36.624;-64.282;2023-12-29T00:19:40;29.60;28.70
59973;DHT22;55298;-36.624;-64.282;2023-12-29T00:22:07;29.60;28.60
59973;DHT22;55298;-36.624;-64.282;2023-12-29T00:24:35;29.60;28.50
59973;DHT22;55298;-36.624;-64.282;2023-12-29T00:27:07;29.50;28.70
59973;DHT22;55298;-36.624;-64.282;2023-12-29T00:29:35;29.40;29.30
59973;DHT22;55298;-36.624;-64.282;2023-12-29T00:32:03;29.30;29.30
59973;DHT22;55298;-36.624;-64.282;2023-12-29T00:34:31;29.30;29.00
59973;DHT22;55298;-36.624;-64.282;2023-12-29T00:36:59;29.20;29.20
59973;DHT22;55298;-36.624;-64.282;2023-12-29T00:39:27;29.10;29.00
59973;DHT22;55298;-36.624;-64.282;2023-12-29T00:41:57;29.10;28.80
59973;DHT22;55298;-36.624;-64.282;2023-12-29T00:44:25;29.00;28.80
59973;DHT22;55298;-36.624;-64.282;2023-12-29T00:46:53;29.00;28.70
59973;DHT22;55298;-36.624;-64.282;2023-12-29T00:49:20;29.00;29.40
59973;DHT22;55298;-36.624;-64.282;2023-12-29T00:51:48;28.90;29.20
59973;DHT22;55298;-36.624;-64.282;2023-12-29T00:54:16;28.90;29.30
59973;DHT22;55298;-36.624;-64.282;2023-12-29T00:56:50;28.80;31.00
59973;DHT22;55298;-36.624;-64.282;2023-12-29T00:59:19;28.70;31.00
59973;DHT22;55298;-36.624;-64.282;2023-12-29T01:01:47;28.60;31.90
59973;DHT22;55298;-36.624;-64.282;2023-12-29T01:04:15;28.50;32.90
59973;DHT22;55298;-36.624;-64.282;2023-12-29T01:06:42;28.50;32.70
59973;DHT22;55298;-36.624;-64.282;2023-12-29T01:09:10;28.50;33.30
59973;DHT22;55298;-36.624;-64.282;2023-12-29T01:11:38;28.50;32.70
59973;DHT22;55298;-36.624;-64.282;2023-12-29T01:14:06;28.50;35.20
59973;DHT22;55298;-36.624;-64.282;2023-12-29T01:16:34;28.40;36.10
59973;DHT22;55298;-36.624;-64.282;2023-12-29T01:19:03;28.40;35.60
59973;DHT22;55298;-36.624;-64.282;2023-12-29T01:21:31;28.50;35.60
59973;DHT22;55298;-36.624;-64.282;2023-12-29T01:24:01;28.40;36.90
59973;DHT22;55298;-36.624;-64.282;2023-12-29T01:26:31;28.30;36.80
59973;DHT22;55298;-36.624;-64.282;2023-12-29T01:28:59;28.30;36.80
59973;DHT22;55298;-36.624;-64.282;2023-12-29T01:31:29;28.30;36.80
59973;DHT22;55298;-36.624;-64.282;2023-12-29T01:33:58;28.30;38.10
59973;DHT22;55298;-36.624;-64.282;2023-12-29T01:36:26;28.20;38.40
59973;DHT22;55298;-36.624;-64.282;2023-12-29T01:38:54;28.20;37.80
59973;DHT22;55298;-36.624;-64.282;2023-12-29T01:41:22;28.10;37.10
59973;DHT22;55298;-36.624;-64.282;2023-12-29T01:46:48;28.10;37.90
59973;DHT22;55298;-36.624;-64.282;2023-12-29T01:49:17;28.10;37.20
59973;DHT22;55298;-36.624;-64.282;2023-12-29T01:51:50;28.00;38.70
59973;DHT22;55298;-36.624;-64.282;2023-12-29T01:54:20;27.90;39.20
59973;DHT22;55298;-36.624;-64.282;2023-12-29T01:56:51;27.90;38.30
59973;DHT22;55298;-36.624;-64.282;2023-12-29T01:59:22;27.90;39.00
59973;DHT22;55298;-36.624;-64.282;2023-12-29T02:01:53;27.80;39.00
59973;DHT22;55298;-36.624;-64.282;2023-12-29T02:04:24;27.80;39.60
59973;DHT22;55298;-36.624;-64.282;2023-12-29T02:06:58;27.70;39.30
59973;DHT22;55298;-36.624;-64.282;2023-12-29T02:09:32;27.60;39.00
59973;DHT22;55298;-36.624;-64.282;2023-12-29T02:12:00;27.70;40.30
59973;DHT22;55298;-36.624;-64.282;2023-12-29T02:14:29;27.60;40.00
59973;DHT22;55298;-36.624;-64.282;2023-12-29T02:19:47;27.50;39.90
59973;DHT22;55298;-36.624;-64.282;2023-12-29T02:22:16;27.50;39.60
59973;DHT22;55298;-36.624;-64.282;2023-12-29T02:24:48;27.40;39.80
59973;DHT22;55298;-36.624;-64.282;2023-12-29T02:27:34;27.40;41.30
59973;DHT22;55298;-36.624;-64.282;2023-12-29T02:30:15;27.40;40.00
59973;DHT22;55298;-36.624;-64.282;2023-12-29T02:32:46;27.30;38.90
59973;DHT22;55298;-36.624;-64.282;2023-12-29T02:35:23;27.30;39.30
59973;DHT22;55298;-36.624;-64.282;2023-12-29T02:37:52;27.30;40.90
59973;DHT22;55298;-36.624;-64.282;2023-12-29T02:40:20;27.20;40.30
59973;DHT22;55298;-36.624;-64.282;2023-12-29T02:42:49;27.10;40.70
59973;DHT22;55298;-36.624;-64.282;2023-12-29T02:45:17;27.10;40.10
59973;DHT22;55298;-36.624;-64.282;2023-12-29T02:47:45;27.00;39.60
59973;DHT22;55298;-36.624;-64.282;2023-12-29T02:50:13;26.80;40.00
59973;DHT22;55298;-36.624;-64.282;2023-12-29T02:52:41;26.80;39.00
59973;DHT22;55298;-36.624;-64.282;2023-12-29T02:55:09;26.70;38.60
59973;DHT22;55298;-36.624;-64.282;2023-12-29T02:57:37;26.60;39.40
59973;DHT22;55298;-36.624;-64.282;2023-12-29T03:00:06;26.60;38.80
59973;DHT22;55298;-36.624;-64.282;2023-12-29T03:02:34;26.50;39.10
59973;DHT22;55298;-36.624;-64.282;2023-12-29T03:05:01;26.40;39.50
59973;DHT22;55298;-36.624;-64.282;2023-12-29T03:07:29;26.40;39.70
59973;DHT22;55298;-36.624;-64.282;2023-12-29T03:09:57;26.30;40.40
59973;DHT22;55298;-36.624;-64.282;2023-12-29T03:12:25;26.20;40.40
59973;DHT22;55298;-36.624;-64.282;2023-12-29T03:14:52;26.00;40.60
59973;DHT22;55298;-36.624;-64.282;2023-12-29T03:17:20;26.00;40.30
59973;DHT22;55298;-36.624;-64.282;2023-12-29T03:19:49;25.90;39.80
59973;DHT22;55298;-36.624;-64.282;2023-12-29T03:22:17;25.80;37.70
59973;DHT22;55298;-36.624;-64.282;2023-12-29T03:24:45;25.70;37.10
59973;DHT22;55298;-36.624;-64.282;2023-12-29T03:27:13;25.60;36.10
59973;DHT22;55298;-36.624;-64.282;2023-12-29T03:29:40;25.50;36.40
59973;DHT22;55298;-36.624;-64.282;2023-12-29T03:32:08;25.50;36.60
59973;DHT22;55298;-36.624;-64.282;2023-12-29T03:34:36;25.40;36.50
59973;DHT22;55298;-36.624;-64.282;2023-12-29T03:37:04;25.40;36.70
59973;DHT22;55298;-36.624;-64.282;2023-12-29T03:39:32;25.30;36.30
59973;DHT22;55298;-36.624;-64.282;2023-12-29T03:42:02;25.30;36.30
59973;DHT22;55298;-36.624;-64.282;2023-12-29T03:44:29;25.20;36.00
59973;DHT22;55298;-36.624;-64.282;2023-12-29T03:46:57;25.20;35.60
59973;DHT22;55298;-36.624;-64.282;2023-12-29T03:49:25;25.20;35.40
59973;DHT22;55298;-36.624;-64.282;2023-12-29T03:51:53;25.10;35.20
59973;DHT22;55298;-36.624;-64.282;2023-12-29T03:54:20;25.20;35.30
59973;DHT22;55298;-36.624;-64.282;2023-12-29T03:56:48;25.10;35.30
59973;DHT22;55298;-36.624;-64.282;2023-12-29T03:59:16;25.10;35.20
59973;DHT22;55298;-36.624;-64.282;2023-12-29T04:01:43;25.20;36.10
59973;DHT22;55298;-36.624;-64.282;2023-12-29T04:04:11;25.20;36.00
59973;DHT22;55298;-36.624;-64.282;2023-12-29T04:06:39;25.20;37.00
59973;DHT22;55298;-36.624;-64.282;2023-12-29T04:09:07;25.20;37.40
59973;DHT22;55298;-36.624;-64.282;2023-12-29T04:11:34;25.10;36.50
59973;DHT22;55298;-36.624;-64.282;2023-12-29T04:14:02;25.10;35.60
59973;DHT22;55298;-36.624;-64.282;2023-12-29T04:16:30;25.10;34.80
59973;DHT22;55298;-36.624;-64.282;2023-12-29T04:18:57;25.10;34.70
59973;DHT22;55298;-36.624;-64.282;2023-12-29T04:21:25;25.00;34.50
59973;DHT22;55298;-36.624;-64.282;2023-12-29T04:23:53;25.00;34.50
59973;DHT22;55298;-36.624;-64.282;2023-12-29T04:26:20;24.90;34.60
59973;DHT22;55298;-36.624;-64.282;2023-12-29T04:28:48;24.90;34.90
59973;DHT22;55298;-36.624;-64.282;2023-12-29T04:31:16;24.80;34.90
59973;DHT22;55298;-36.624;-64.282;2023-12-29T04:33:43;24.70;34.90
59973;DHT22;55298;-36.624;-64.282;2023-12-29T04:36:12;24.70;34.90
59973;DHT22;55298;-36.624;-64.282;2023-12-29T04:38:40;24.60;34.90
59973;DHT22;55298;-36.624;-64.282;2023-12-29T04:41:08;24.50;34.80
59973;DHT22;55298;-36.624;-64.282;2023-12-29T04:43:35;24.50;35.00
59973;DHT22;55298;-36.624;-64.282;2023-12-29T04:46:03;24.40;34.70
59973;DHT22;55298;-36.624;-64.282;2023-12-29T04:48:31;24.30;34.30
59973;DHT22;55298;-36.624;-64.282;2023-12-29T04:50:59;24.30;34.00
59973;DHT22;55298;-36.624;-64.282;2023-12-29T04:53:26;24.20;33.30
59973;DHT22;55298;-36.624;-64.282;2023-12-29T04:55:54;24.20;33.30
59973;DHT22;55298;-36.624;-64.282;2023-12-29T04:58:21;24.10;33.30
59973;DHT22;55298;-36.624;-64.282;2023-12-29T05:00:50;24.10;33.40
59973;DHT22;55298;-36.624;-64.282;2023-12-29T05:03:17;24.00;33.30
59973;DHT22;55298;-36.624;-64.282;2023-12-29T05:05:45;23.90;33.00
59973;DHT22;55298;-36.624;-64.282;2023-12-29T05:08:13;23.90;33.00
59973;DHT22;55298;-36.624;-64.282;2023-12-29T05:10:40;23.90;33.00
59973;DHT22;55298;-36.624;-64.282;2023-12-29T05:13:08;23.80;32.90
59973;DHT22;55298;-36.624;-64.282;2023-12-29T05:15:35;23.80;32.80
59973;DHT22;55298;-36.624;-64.282;2023-12-29T05:18:03;23.80;32.50
59973;DHT22;55298;-36.624;-64.282;2023-12-29T05:20:31;23.70;32.50
59973;DHT22;55298;-36.624;-64.282;2023-12-29T05:22:59;23.70;32.60
59973;DHT22;55298;-36.624;-64.282;2023-12-29T05:25:26;23.60;32.80
59973;DHT22;55298;-36.624;-64.282;2023-12-29T05:27:54;23.50;32.90
59973;DHT22;55298;-36.624;-64.282;2023-12-29T05:30:21;23.40;33.00
59973;DHT22;55298;-36.624;-64.282;2023-12-29T05:32:49;23.40;33.20
59973;DHT22;55298;-36.624;-64.282;2023-12-29T05:35:17;23.30;33.20
59973;DHT22;55298;-36.624;-64.282;2023-12-29T05:37:45;23.30;33.20
59973;DHT22;55298;-36.624;-64.282;2023-12-29T05:40:13;23.20;32.90
59973;DHT22;55298;-36.624;-64.282;2023-12-29T05:42:41;23.10;32.80
59973;DHT22;55298;-36.624;-64.282;2023-12-29T05:45:09;23.10;32.40
59973;DHT22;55298;-36.624;-64.282;2023-12-29T05:47:36;23.00;32.20
59973;DHT22;55298;-36.624;-64.282;2023-12-29T05:50:04;23.00;32.20
59973;DHT22;55298;-36.624;-64.282;2023-12-29T05:52:32;22.90;32.00
59973;DHT22;55298;-36.624;-64.282;2023-12-29T05:55:00;22.90;31.70
59973;DHT22;55298;-36.624;-64.282;2023-12-29T05:57:28;22.90;31.70
59973;DHT22;55298;-36.624;-64.282;2023-12-29T05:59:55;22.90;31.50
59973;DHT22;55298;-36.624;-64.282;2023-12-29T06:02:23;22.80;31.50
59973;DHT22;55298;-36.624;-64.282;2023-12-29T06:04:51;22.80;31.60
59973;DHT22;55298;-36.624;-64.282;2023-12-29T06:07:18;22.80;31.40
59973;DHT22;55298;-36.624;-64.282;2023-12-29T06:09:46;22.80;31.40
59973;DHT22;55298;-36.624;-64.282;2023-12-29T06:12:13;22.70;31.30
59973;DHT22;55298;-36.624;-64.282;2023-12-29T06:14:41;22.70;31.20
59973;DHT22;55298;-36.624;-64.282;2023-12-29T06:17:09;22.70;31.30
59973;DHT22;55298;-36.624;-64.282;2023-12-29T06:19:36;22.60;31.30
59973;DHT22;55298;-36.624;-64.282;2023-12-29T06:22:04;22.60;31.00
59973;DHT22;55298;-36.624;-64.282;2023-12-29T06:24:33;22.60;30.90
59973;DHT22;55298;-36.624;-64.282;2023-12-29T06:27:01;22.60;30.80
59973;DHT22;55298;-36.624;-64.282;2023-12-29T06:29:29;22.60;30.80
59973;DHT22;55298;-36.624;-64.282;2023-12-29T06:31:57;22.60;30.90
59973;DHT22;55298;-36.624;-64.282;2023-12-29T06:34:25;22.60;31.00
59973;DHT22;55298;-36.624;-64.282;2023-12-29T06:36:53;22.60;31.20
59973;DHT22;55298;-36.624;-64.282;2023-12-29T06:39:20;22.60;31.20
59973;DHT22;55298;-36.624;-64.282;2023-12-29T06:41:49;22.60;31.30
59973;DHT22;55298;-36.624;-64.282;2023-12-29T06:44:17;22.60;31.50
59973;DHT22;55298;-36.624;-64.282;2023-12-29T06:46:44;22.50;31.60
59973;DHT22;55298;-36.624;-64.282;2023-12-29T06:49:12;22.60;32.00
59973;DHT22;55298;-36.624;-64.282;2023-12-29T06:51:40;22.50;32.40
59973;DHT22;55298;-36.624;-64.282;2023-12-29T06:54:08;22.60;32.90
59973;DHT22;55298;-36.624;-64.282;2023-12-29T06:56:36;22.60;33.30
59973;DHT22;55298;-36.624;-64.282;2023-12-29T06:59:04;22.60;33.60
59973;DHT22;55298;-36.624;-64.282;2023-12-29T07:01:31;22.60;33.70
59973;DHT22;55298;-36.624;-64.282;2023-12-29T07:03:59;22.60;33.70
59973;DHT22;55298;-36.624;-64.282;2023-12-29T07:06:27;22.60;33.90
59973;DHT22;55298;-36.624;-64.282;2023-12-29T07:08:54;22.60;34.00
59973;DHT22;55298;-36.624;-64.282;2023-12-29T07:11:22;22.50;34.00
59973;DHT22;55298;-36.624;-64.282;2023-12-29T07:13:50;22.50;34.30
59973;DHT22;55298;-36.624;-64.282;2023-12-29T07:16:17;22.50;34.30
59973;DHT22;55298;-36.624;-64.282;2023-12-29T07:18:47;22.40;34.70
59973;DHT22;55298;-36.624;-64.282;2023-12-29T07:21:15;22.50;34.90
59973;DHT22;55298;-36.624;-64.282;2023-12-29T07:23:43;22.30;35.00
59973;DHT22;55298;-36.624;-64.282;2023-12-29T07:26:11;22.30;35.20
59973;DHT22;55298;-36.624;-64.282;2023-12-29T07:28:39;22.30;35.30
59973;DHT22;55298;-36.624;-64.282;2023-12-29T07:31:06;22.30;35.50
59973;DHT22;55298;-36.624;-64.282;2023-12-29T07:33:34;22.30;35.60
59973;DHT22;55298;-36.624;-64.282;2023-12-29T07:36:02;22.20;35.60
59973;DHT22;55298;-36.624;-64.282;2023-12-29T07:38:30;22.20;35.80
59973;DHT22;55298;-36.624;-64.282;2023-12-29T07:40:57;22.20;36.10
59973;DHT22;55298;-36.624;-64.282;2023-12-29T07:43:26;22.20;36.30
59973;DHT22;55298;-36.624;-64.282;2023-12-29T07:45:53;22.20;36.50
59973;DHT22;55298;-36.624;-64.282;2023-12-29T07:48:21;22.10;36.90
59973;DHT22;55298;-36.624;-64.282;2023-12-29T07:50:49;22.10;36.80
59973;DHT22;55298;-36.624;-64.282;2023-12-29T07:53:17;22.10;37.30
59973;DHT22;55298;-36.624;-64.282;2023-12-29T07:55:45;22.10;37.30
59973;DHT22;55298;-36.624;-64.282;2023-12-29T07:58:16;22.00;37.60
59973;DHT22;55298;-36.624;-64.282;2023-12-29T08:00:43;22.00;37.90
59973;DHT22;55298;-36.624;-64.282;2023-12-29T08:03:11;22.00;37.90
59973;DHT22;55298;-36.624;-64.282;2023-12-29T08:05:38;22.00;38.20
59973;DHT22;55298;-36.624;-64.282;2023-12-29T08:08:06;22.00;38.40
59973;DHT22;55298;-36.624;-64.282;2023-12-29T08:10:34;21.90;38.90
59973;DHT22;55298;-36.624;-64.282;2023-12-29T08:13:02;21.90;38.80
59973;DHT22;55298;-36.624;-64.282;2023-12-29T08:15:30;21.80;39.10
59973;DHT22;55298;-36.624;-64.282;2023-12-29T08:17:58;21.80;38.90
59973;DHT22;55298;-36.624;-64.282;2023-12-29T08:20:25;21.70;38.80
59973;DHT22;55298;-36.624;-64.282;2023-12-29T08:22:53;21.80;39.10
59973;DHT22;55298;-36.624;-64.282;2023-12-29T08:25:21;21.70;39.30
59973;DHT22;55298;-36.624;-64.282;2023-12-29T08:27:48;21.70;39.20
59973;DHT22;55298;-36.624;-64.282;2023-12-29T08:30:16;21.70;39.50
59973;DHT22;55298;-36.624;-64.282;2023-12-29T08:32:44;21.60;39.50
59973;DHT22;55298;-36.624;-64.282;2023-12-29T08:35:11;21.60;39.60
59973;DHT22;55298;-36.624;-64.282;2023-12-29T08:37:39;21.50;39.70
59973;DHT22;55298;-36.624;-64.282;2023-12-29T08:40:07;21.50;39.80
59973;DHT22;55298;-36.624;-64.282;2023-12-29T08:42:35;21.40;40.30
59973;DHT22;55298;-36.624;-64.282;2023-12-29T08:45:03;21.50;40.50
59973;DHT22;55298;-36.624;-64.282;2023-12-29T08:47:31;21.30;40.30
59973;DHT22;55298;-36.624;-64.282;2023-12-29T08:49:59;21.30;40.40
59973;DHT22;55298;-36.624;-64.282;2023-12-29T08:52:28;21.20;40.80
59973;DHT22;55298;-36.624;-64.282;2023-12-29T08:54:56;21.20;40.50
59973;DHT22;55298;-36.624;-64.282;2023-12-29T08:57:24;21.10;41.60
59973;DHT22;55298;-36.624;-64.282;2023-12-29T08:59:51;21.10;41.10
59973;DHT22;55298;-36.624;-64.282;2023-12-29T09:02:19;21.10;41.00
59973;DHT22;55298;-36.624;-64.282;2023-12-29T09:04:46;21.10;41.30
59973;DHT22;55298;-36.624;-64.282;2023-12-29T09:07:14;21.10;41.20
59973;DHT22;55298;-36.624;-64.282;2023-12-29T09:09:45;21.10;41.20
59973;DHT22;55298;-36.624;-64.282;2023-12-29T09:12:13;21.10;41.40
59973;DHT22;55298;-36.624;-64.282;2023-12-29T09:14:40;21.00;41.00
59973;DHT22;55298;-36.624;-64.282;2023-12-29T09:17:08;21.00;41.60
59973;DHT22;55298;-36.624;-64.282;2023-12-29T09:19:36;21.00;41.60
59973;DHT22;55298;-36.624;-64.282;2023-12-29T09:22:05;21.00;41.80
59973;DHT22;55298;-36.624;-64.282;2023-12-29T09:24:32;21.10;41.60
59973;DHT22;55298;-36.624;-64.282;2023-12-29T09:27:00;21.00;41.50
59973;DHT22;55298;-36.624;-64.282;2023-12-29T09:29:32;21.00;41.70
59973;DHT22;55298;-36.624;-64.282;2023-12-29T09:32:00;21.10;41.80
59973;DHT22;55298;-36.624;-64.282;2023-12-29T09:34:27;21.10;41.70
59973;DHT22;55298;-36.624;-64.282;2023-12-29T09:36:55;21.00;42.00
59973;DHT22;55298;-36.624;-64.282;2023-12-29T09:39:23;20.90;42.30
59973;DHT22;55298;-36.624;-64.282;2023-12-29T09:41:52;20.80;43.20
59973;DHT22;55298;-36.624;-64.282;2023-12-29T09:44:22;20.60;43.60
59973;DHT22;55298;-36.624;-64.282;2023-12-29T09:46:54;20.50;44.90
59973;DHT22;55298;-36.624;-64.282;2023-12-29T09:49:22;20.50;45.70
59973;DHT22;55298;-36.624;-64.282;2023-12-29T09:51:51;20.30;46.20
59973;DHT22;55298;-36.624;-64.282;2023-12-29T09:54:19;20.30;46.70
59973;DHT22;55298;-36.624;-64.282;2023-12-29T09:56:48;20.20;47.10
59973;DHT22;55298;-36.624;-64.282;2023-12-29T09:59:17;20.10;47.70
59973;DHT22;55298;-36.624;-64.282;2023-12-29T10:01:46;20.10;48.20
59973;DHT22;55298;-36.624;-64.282;2023-12-29T10:04:13;20.00;48.80
59973;DHT22;55298;-36.624;-64.282;2023-12-29T10:06:44;20.10;48.70
59973;DHT22;55298;-36.624;-64.282;2023-12-29T10:09:15;20.10;49.90
59973;DHT22;55298;-36.624;-64.282;2023-12-29T10:11:46;20.40;50.00
59973;DHT22;55298;-36.624;-64.282;2023-12-29T10:14:41;21.00;49.00
59973;DHT22;55298;-36.624;-64.282;2023-12-29T10:17:27;22.00;47.70
59973;DHT22;55298;-36.624;-64.282;2023-12-29T10:20:11;22.80;45.20
59973;DHT22;55298;-36.624;-64.282;2023-12-29T10:22:56;23.50;44.00
59973;DHT22;55298;-36.624;-64.282;2023-12-29T10:25:28;23.90;43.10
59973;DHT22;55298;-36.624;-64.282;2023-12-29T10:28:00;23.60;43.70
59973;DHT22;55298;-36.624;-64.282;2023-12-29T10:30:31;22.90;45.40
59973;DHT22;55298;-36.624;-64.282;2023-12-29T10:33:00;22.00;47.50
59973;DHT22;55298;-36.624;-64.282;2023-12-29T10:35:30;21.50;49.60
59973;DHT22;55298;-36.624;-64.282;2023-12-29T10:38:09;21.20;50.30
59973;DHT22;55298;-36.624;-64.282;2023-12-29T10:40:38;20.90;51.50
59973;DHT22;55298;-36.624;-64.282;2023-12-29T10:43:07;20.80;51.70
59973;DHT22;55298;-36.624;-64.282;2023-12-29T10:45:36;20.70;52.30
59973;DHT22;55298;-36.624;-64.282;2023-12-29T10:48:04;20.70;52.90
59973;DHT22;55298;-36.624;-64.282;2023-12-29T10:50:44;20.60;53.40
59973;DHT22;55298;-36.624;-64.282;2023-12-29T10:53:13;20.20;54.30
59973;DHT22;55298;-36.624;-64.282;2023-12-29T10:55:41;20.20;54.80
59973;DHT22;55298;-36.624;-64.282;2023-12-29T10:58:09;20.30;54.80
59973;DHT22;55298;-36.624;-64.282;2023-12-29T11:00:36;20.40;55.40
59973;DHT22;55298;-36.624;-64.282;2023-12-29T11:03:06;20.60;54.80
59973;DHT22;55298;-36.624;-64.282;2023-12-29T11:05:35;20.80;53.90
59973;DHT22;55298;-36.624;-64.282;2023-12-29T11:08:17;20.80;54.10
59973;DHT22;55298;-36.624;-64.282;2023-12-29T11:10:49;20.90;53.90
59973;DHT22;55298;-36.624;-64.282;2023-12-29T11:13:19;20.90;54.00
59973;DHT22;55298;-36.624;-64.282;2023-12-29T11:15:47;20.90;54.00
59973;DHT22;55298;-36.624;-64.282;2023-12-29T11:18:16;21.10;53.90
59973;DHT22;55298;-36.624;-64.282;2023-12-29T11:20:46;23.10;52.60
59973;DHT22;55298;-36.624;-64.282;2023-12-29T11:23:17;23.40;49.10
59973;DHT22;55298;-36.624;-64.282;2023-12-29T11:25:46;24.60;45.20
59973;DHT22;55298;-36.624;-64.282;2023-12-29T11:28:15;25.60;43.70
59973;DHT22;55298;-36.624;-64.282;2023-12-29T11:30:43;25.90;41.70
59973;DHT22;55298;-36.624;-64.282;2023-12-29T11:33:19;26.20;41.20
59973;DHT22;55298;-36.624;-64.282;2023-12-29T11:35:55;26.40;40.70
59973;DHT22;55298;-36.624;-64.282;2023-12-29T11:38:44;26.80;39.90
59973;DHT22;55298;-36.624;-64.282;2023-12-29T11:41:31;26.50;39.40
59973;DHT22;55298;-36.624;-64.282;2023-12-29T11:44:03;26.80;39.30
59973;DHT22;55298;-36.624;-64.282;2023-12-29T11:46:42;26.70;39.00
59973;DHT22;55298;-36.624;-64.282;2023-12-29T11:49:13;26.70;39.10
59973;DHT22;55298;-36.624;-64.282;2023-12-29T11:51:49;26.70;39.00
59973;DHT22;55298;-36.624;-64.282;2023-12-29T11:54:40;26.80;39.20
59973;DHT22;55298;-36.624;-64.282;2023-12-29T11:57:10;26.40;39.60
59973;DHT22;55298;-36.624;-64.282;2023-12-29T11:59:47;25.80;41.40
59973;DHT22;55298;-36.624;-64.282;2023-12-29T12:02:27;25.40;43.10
59973;DHT22;55298;-36.624;-64.282;2023-12-29T12:04:56;25.70;43.30
59973;DHT22;55298;-36.624;-64.282;2023-12-29T12:07:58;26.10;43.40
59973;DHT22;55298;-36.624;-64.282;2023-12-29T12:10:30;26.20;43.50
59973;DHT22;55298;-36.624;-64.282;2023-12-29T12:13:00;26.40;43.90
59973;DHT22;55298;-36.624;-64.282;2023-12-29T12:15:34;26.60;43.90
59973;DHT22;55298;-36.624;-64.282;2023-12-29T12:18:04;26.60;43.80
59973;DHT22;55298;-36.624;-64.282;2023-12-29T12:20:35;26.90;43.60
59973;DHT22;55298;-36.624;-64.282;2023-12-29T12:23:10;27.30;43.10
59973;DHT22;55298;-36.624;-64.282;2023-12-29T12:25:40;27.40;43.40
59973;DHT22;55298;-36.624;-64.282;2023-12-29T12:28:09;27.60;42.50
59973;DHT22;55298;-36.624;-64.282;2023-12-29T12:30:42;27.20;42.10
59973;DHT22;55298;-36.624;-64.282;2023-12-29T12:33:09;26.40;44.50
59973;DHT22;55298;-36.624;-64.282;2023-12-29T12:35:39;26.30;44.50
59973;DHT22;55298;-36.624;-64.282;2023-12-29T12:38:16;26.50;44.90
59973;DHT22;55298;-36.624;-64.282;2023-12-29T12:40:48;26.80;44.30
59973;DHT22;55298;-36.624;-64.282;2023-12-29T12:43:16;27.60;43.60
59973;DHT22;55298;-36.624;-64.282;2023-12-29T12:45:53;27.80;41.90
59973;DHT22;55298;-36.624;-64.282;2023-12-29T12:48:32;27.70;43.30
59973;DHT22;55298;-36.624;-64.282;2023-12-29T12:51:01;28.00;41.70
59973;DHT22;55298;-36.624;-64.282;2023-12-29T12:53:30;28.20;42.10
59973;DHT22;55298;-36.624;-64.282;2023-12-29T12:55:58;28.50;42.20
59973;DHT22;55298;-36.624;-64.282;2023-12-29T12:58:26;28.70;41.50
59973;DHT22;55298;-36.624;-64.282;2023-12-29T13:00:59;28.40;40.80
59973;DHT22;55298;-36.624;-64.282;2023-12-29T13:03:28;28.00;41.50
59973;DHT22;55298;-36.624;-64.282;2023-12-29T13:05:58;27.80;42.00
59973;DHT22;55298;-36.624;-64.282;2023-12-29T13:08:26;27.60;42.40
59973;DHT22;55298;-36.624;-64.282;2023-12-29T13:10:54;27.10;43.80
59973;DHT22;55298;-36.624;-64.282;2023-12-29T13:13:22;26.80;45.30
59973;DHT22;55298;-36.624;-64.282;2023-12-29T13:15:51;27.50;44.00
59973;DHT22;55298;-36.624;-64.282;2023-12-29T13:18:29;28.30;42.20
59973;DHT22;55298;-36.624;-64.282;2023-12-29T13:20:58;28.50;41.20
59973;DHT22;55298;-36.624;-64.282;2023-12-29T13:23:41;29.20;40.80
59973;DHT22;55298;-36.624;-64.282;2023-12-29T13:26:13;29.40;40.50
59973;DHT22;55298;-36.624;-64.282;2023-12-29T13:28:44;29.60;40.00
59973;DHT22;55298;-36.624;-64.282;2023-12-29T13:33:48;28.80;40.40
59973;DHT22;55298;-36.624;-64.282;2023-12-29T13:36:53;29.20;41.00
59973;DHT22;55298;-36.624;-64.282;2023-12-29T13:39:40;29.20;39.80
59973;DHT22;55298;-36.624;-64.282;2023-12-29T13:42:12;29.20;40.40
59973;DHT22;55298;-36.624;-64.282;2023-12-29T13:44:44;29.00;40.10
59973;DHT22;55298;-36.624;-64.282;2023-12-29T13:47:13;28.30;42.20
59973;DHT22;55298;-36.624;-64.282;2023-12-29T13:49:41;28.60;42.00
59973;DHT22;55298;-36.624;-64.282;2023-12-29T13:52:12;27.80;42.60
59973;DHT22;55298;-36.624;-64.282;2023-12-29T13:54:42;28.10;43.60
59973;DHT22;55298;-36.624;-64.282;2023-12-29T13:57:11;28.50;42.70
59973;DHT22;55298;-36.624;-64.282;2023-12-29T13:59:39;29.10;41.60
59973;DHT22;55298;-36.624;-64.282;2023-12-29T14:02:23;29.90;39.90
59973;DHT22;55298;-36.624;-64.282;2023-12-29T14:05:14;30.20;39.40
59973;DHT22;55298;-36.624;-64.282;2023-12-29T14:10:23;30.20;39.20
59973;DHT22;55298;-36.624;-64.282;2023-12-29T14:12:52;29.70;39.60
59973;DHT22;55298;-36.624;-64.282;2023-12-29T14:15:20;29.50;39.10
59973;DHT22;55298;-36.624;-64.282;2023-12-29T14:17:49;29.90;39.30
59973;DHT22;55298;-36.624;-64.282;2023-12-29T14:20:33;30.30;37.60
59973;DHT22;55298;-36.624;-64.282;2023-12-29T14:23:04;30.10;37.30
59973;DHT22;55298;-36.624;-64.282;2023-12-29T14:25:35;29.40;39.20
59973;DHT22;55298;-36.624;-64.282;2023-12-29T14:28:14;28.30;39.90
59973;DHT22;55298;-36.624;-64.282;2023-12-29T14:30:44;28.30;40.40
59973;DHT22;55298;-36.624;-64.282;2023-12-29T14:33:12;29.20;40.00
59973;DHT22;55298;-36.624;-64.282;2023-12-29T14:35:40;29.40;38.70
59973;DHT22;55298;-36.624;-64.282;2023-12-29T14:38:08;29.80;38.60
59973;DHT22;55298;-36.624;-64.282;2023-12-29T14:40:37;29.40;37.40
59973;DHT22;55298;-36.624;-64.282;2023-12-29T14:43:05;29.10;39.50
59973;DHT22;55298;-36.624;-64.282;2023-12-29T14:45:33;29.90;39.50
59973;DHT22;55298;-36.624;-64.282;2023-12-29T14:48:01;30.50;36.90
59973;DHT22;55298;-36.624;-64.282;2023-12-29T14:50:29;29.60;37.20
59973;DHT22;55298;-36.624;-64.282;2023-12-29T14:52:57;29.90;37.90
59973;DHT22;55298;-36.624;-64.282;2023-12-29T14:55:24;30.50;36.80
59973;DHT22;55298;-36.624;-64.282;2023-12-29T14:57:53;31.00;36.10
59973;DHT22;55298;-36.624;-64.282;2023-12-29T15:00:21;30.00;35.10
59973;DHT22;55298;-36.624;-64.282;2023-12-29T15:02:49;29.70;37.10
59973;DHT22;55298;-36.624;-64.282;2023-12-29T15:05:18;29.50;36.80
59973;DHT22;55298;-36.624;-64.282;2023-12-29T15:07:47;29.70;37.30
59973;DHT22;55298;-36.624;-64.282;2023-12-29T15:10:15;30.10;37.30
59973;DHT22;55298;-36.624;-64.282;2023-12-29T15:12:43;30.20;36.70
59973;DHT22;55298;-36.624;-64.282;2023-12-29T15:15:10;30.00;37.10